sensor_id;sensor_type;location;lat;lon;timestamp;pressure;altitude;pressure_sealevel;temperature;humidity
39265;BME280;42646;51.910;7.724;2023-06-26T00:02:25;100713.03;;;20.37;97.23
39265;BME280;42646;51.910;7.724;2023-06-26T00:04:53;100711.38;;;20.36;97.38
39265;BME280;42646;51.910;7.724;2023-06-26T00:07:20;100714.69;;;20.32;97.17
39265;BME280;42646;51.910;7.724;2023-06-26T00:09:48;100715.09;;;20.28;97.11
39265;BME280;42646;51.910;7.724;2023-06-26T00:12:16;100711.75;;;20.26;97.00
39265;BME280;42646;51.910;7.724;2023-06-26T00:14:45;100707.59;;;20.24;97.54
39265;BME280;42646;51.910;7.724;2023-06-26T00:17:12;100707.59;;;20.24;96.82
39265;BME280;42646;51.910;7.724;2023-06-26T00:19:42;100704.06;;;20.23;96.90
39265;BME280;42646;51.910;7.724;2023-06-26T00:22:09;100697.81;;;20.23;97.16
39265;BME280;42646;51.910;7.724;2023-06-26T00:24:37;100699.69;;;20.22;97.59
39265;BME280;42646;51.910;7.724;2023-06-26T00:27:05;100698.00;;;20.21;97.82
39265;BME280;42646;51.910;7.724;2023-06-26T00:29:33;100695.28;;;20.21;97.56
39265;BME280;42646;51.910;7.724;2023-06-26T00:32:03;100692.59;;;20.21;98.08
39265;BME280;42646;51.910;7.724;2023-06-26T00:34:32;100694.28;;;20.22;97.67
39265;BME280;42646;51.910;7.724;2023-06-26T00:37:02;100686.34;;;20.21;98.29
39265;BME280;42646;51.910;7.724;2023-06-26T00:39:30;100682.19;;;20.18;98.18
39265;BME280;42646;51.910;7.724;2023-06-26T00:41:58;100684.28;;;20.16;98.06
39265;BME280;42646;51.910;7.724;2023-06-26T00:44:25;100676.34;;;20.15;98.24
39265;BME280;42646;51.910;7.724;2023-06-26T00:47:20;100672.00;;;20.14;98.13
39265;BME280;42646;51.910;7.724;2023-06-26T00:49:48;100676.97;;;20.10;97.92
39265;BME280;42646;51.910;7.724;2023-06-26T00:52:16;100679.03;;;20.08;97.36
39265;BME280;42646;51.910;7.724;2023-06-26T00:54:45;100677.38;;;20.07;96.96
39265;BME280;42646;51.910;7.724;2023-06-26T00:57:13;100680.44;;;20.04;96.75
39265;BME280;42646;51.910;7.724;2023-06-26T00:59:40;100674.22;;;20.04;97.03
39265;BME280;42646;51.910;7.724;2023-06-26T01:02:09;100669.22;;;20.00;97.66
39265;BME280;42646;51.910;7.724;2023-06-26T01:04:38;100675.66;;;19.99;97.92
39265;BME280;42646;51.910;7.724;2023-06-26T01:07:15;100667.94;;;19.96;98.12
39265;BME280;42646;51.910;7.724;2023-06-26T01:09:46;100662.31;;;19.91;97.95
39265;BME280;42646;51.910;7.724;2023-06-26T01:12:17;100655.66;;;19.87;98.25
39265;BME280;42646;51.910;7.724;2023-06-26T01:14:48;100658.75;;;19.84;98.23
39265;BME280;42646;51.910;7.724;2023-06-26T01:17:16;100654.75;;;19.80;98.61
39265;BME280;42646;51.910;7.724;2023-06-26T01:19:47;100655.56;;;19.74;98.32
39265;BME280;42646;51.910;7.724;2023-06-26T01:22:24;100654.47;;;19.68;98.47
39265;BME280;42646;51.910;7.724;2023-06-26T01:25:00;100645.97;;;19.65;99.10
39265;BME280;42646;51.910;7.724;2023-06-26T01:27:32;100642.00;;;19.61;99.09
39265;BME280;42646;51.910;7.724;2023-06-26T01:30:01;100639.28;;;19.61;99.19
39265;BME280;42646;51.910;7.724;2023-06-26T01:32:31;100639.84;;;19.56;99.74
39265;BME280;42646;51.910;7.724;2023-06-26T01:35:02;100638.38;;;19.54;99.77
39265;BME280;42646;51.910;7.724;2023-06-26T01:37:30;100638.97;;;19.49;99.75
39265;BME280;42646;51.910;7.724;2023-06-26T01:40:03;100631.06;;;19.47;99.87
39265;BME280;42646;51.910;7.724;2023-06-26T01:42:34;100632.13;;;19.46;100.00
39265;BME280;42646;51.910;7.724;2023-06-26T01:45:08;100630.63;;;19.44;100.00
39265;BME280;42646;51.910;7.724;2023-06-26T01:47:40;100626.25;;;19.43;100.00
39265;BME280;42646;51.910;7.724;2023-06-26T01:50:12;100627.50;;;19.40;100.00
39265;BME280;42646;51.910;7.724;2023-06-26T01:52:53;100629.53;;;19.38;100.00
39265;BME280;42646;51.910;7.724;2023-06-26T01:55:32;100615.63;;;19.35;100.00
39265;BME280;42646;51.910;7.724;2023-06-26T01:58:04;100627.47;;;19.34;100.00
39265;BME280;42646;51.910;7.724;2023-06-26T02:00:32;100623.28;;;19.31;100.00
39265;BME280;42646;51.910;7.724;2023-06-26T02:03:03;100614.75;;;19.28;100.00
39265;BME280;42646;51.910;7.724;2023-06-26T02:05:33;100614.94;;;19.26;100.00
39265;BME280;42646;51.910;7.724;2023-06-26T02:08:03;100612.66;;;19.23;100.00
39265;BME280;42646;51.910;7.724;2023-06-26T02:10:31;100616.16;;;19.24;100.00
39265;BME280;42646;51.910;7.724;2023-06-26T02:12:59;100613.69;;;19.22;100.00
39265;BME280;42646;51.910;7.724;2023-06-26T02:15:28;100609.28;;;19.21;100.00
39265;BME280;42646;51.910;7.724;2023-06-26T02:17:55;100613.03;;;19.20;100.00
39265;BME280;42646;51.910;7.724;2023-06-26T02:20:23;100605.34;;;19.17;100.00
39265;BME280;42646;51.910;7.724;2023-06-26T02:22:52;100613.81;;;19.14;100.00
39265;BME280;42646;51.910;7.724;2023-06-26T02:25:20;100615.03;;;19.11;100.00
39265;BME280;42646;51.910;7.724;2023-06-26T02:27:48;100614.41;;;19.09;100.00
39265;BME280;42646;51.910;7.724;2023-06-26T02:30:21;100614.59;;;19.08;100.00
39265;BME280;42646;51.910;7.724;2023-06-26T02:32:50;100614.78;;;19.06;100.00
39265;BME280;42646;51.910;7.724;2023-06-26T02:35:19;100615.81;;;19.05;100.00
39265;BME280;42646;51.910;7.724;2023-06-26T02:37:50;100614.31;;;19.03;100.00
39265;BME280;42646;51.910;7.724;2023-06-26T02:40:22;100611.84;;;19.01;100.00
39265;BME280;42646;51.910;7.724;2023-06-26T02:42:52;100610.16;;;19.00;100.00
39265;BME280;42646;51.910;7.724;2023-06-26T02:45:20;100609.53;;;18.98;100.00
39265;BME280;42646;51.910;7.724;2023-06-26T02:47:49;100609.53;;;18.98;100.00
39265;BME280;42646;51.910;7.724;2023-06-26T02:50:19;100614.28;;;18.96;100.00
39265;BME280;42646;51.910;7.724;2023-06-26T02:53:27;100616.13;;;18.95;100.00
39265;BME280;42646;51.910;7.724;2023-06-26T02:55:55;100609.28;;;18.93;100.00
39265;BME280;42646;51.910;7.724;2023-06-26T02:58:23;100618.41;;;18.92;100.00
39265;BME280;42646;51.910;7.724;2023-06-26T03:00:52;100616.53;;;18.92;100.00
39265;BME280;42646;51.910;7.724;2023-06-26T03:03:49;100613.19;;;18.90;100.00
39265;BME280;42646;51.910;7.724;2023-06-26T03:06:42;100614.22;;;18.89;100.00
39265;BME280;42646;51.910;7.724;2023-06-26T03:09:10;100620.84;;;18.87;100.00
39265;BME280;42646;51.910;7.724;2023-06-26T03:11:37;100618.31;;;18.85;100.00
39265;BME280;42646;51.910;7.724;2023-06-26T03:14:06;100614.78;;;18.85;100.00
39265;BME280;42646;51.910;7.724;2023-06-26T03:16:34;100613.13;;;18.84;100.00
39265;BME280;42646;51.910;7.724;2023-06-26T03:19:05;100617.50;;;18.85;100.00
39265;BME280;42646;51.910;7.724;2023-06-26T03:21:52;100617.06;;;18.81;100.00
39265;BME280;42646;51.910;7.724;2023-06-26T03:24:23;100615.41;;;18.80;100.00
39265;BME280;42646;51.910;7.724;2023-06-26T03:26:54;100615.56;;;18.79;100.00
39265;BME280;42646;51.910;7.724;2023-06-26T03:29:22;100616.59;;;18.78;100.00
39265;BME280;42646;51.910;7.724;2023-06-26T03:31:53;100619.50;;;18.76;100.00
39265;BME280;42646;51.910;7.724;2023-06-26T03:34:22;100617.00;;;18.75;100.00
39265;BME280;42646;51.910;7.724;2023-06-26T03:36:49;100620.53;;;18.75;100.00
39265;BME280;42646;51.910;7.724;2023-06-26T03:39:17;100629.81;;;18.73;100.00
39265;BME280;42646;51.910;7.724;2023-06-26T03:41:46;100621.94;;;18.71;100.00
39265;BME280;42646;51.910;7.724;2023-06-26T03:44:14;100628.34;;;18.70;100.00
39265;BME280;42646;51.910;7.724;2023-06-26T03:46:46;100625.25;;;18.73;100.00
39265;BME280;42646;51.910;7.724;2023-06-26T03:49:40;100617.56;;;18.70;100.00
39265;BME280;42646;51.910;7.724;2023-06-26T03:52:08;100624.16;;;18.67;100.00
39265;BME280;42646;51.910;7.724;2023-06-26T03:54:38;100622.03;;;18.63;100.00
39265;BME280;42646;51.910;7.724;2023-06-26T03:57:05;100622.19;;;18.61;100.00
39265;BME280;42646;51.910;7.724;2023-06-26T03:59:34;100623.22;;;18.60;100.00
39265;BME280;42646;51.910;7.724;2023-06-26T04:02:01;100621.38;;;18.61;100.00
39265;BME280;42646;51.910;7.724;2023-06-26T04:04:29;100622.19;;;18.61;100.00
39265;BME280;42646;51.910;7.724;2023-06-26T04:06:59;100622.19;;;18.61;100.00
39265;BME280;42646;51.910;7.724;2023-06-26T04:09:27;100622.88;;;18.63;100.00
39265;BME280;42646;51.910;7.724;2023-06-26T04:11:55;100626.38;;;18.64;100.00
39265;BME280;42646;51.910;7.724;2023-06-26T04:14:23;100629.72;;;18.66;100.00
39265;BME280;42646;51.910;7.724;2023-06-26T04:16:53;100626.84;;;18.67;100.00
39265;BME280;42646;51.910;7.724;2023-06-26T04:19:20;100630.66;;;18.73;100.00
39265;BME280;42646;51.910;7.724;2023-06-26T04:21:49;100620.91;;;18.72;100.00
39265;BME280;42646;51.910;7.724;2023-06-26T04:24:19;100623.78;;;18.71;100.00
39265;BME280;42646;51.910;7.724;2023-06-26T04:26:47;100627.13;;;18.73;100.00
39265;BME280;42646;51.910;7.724;2023-06-26T04:29:15;100623.22;;;18.75;100.00
39265;BME280;42646;51.910;7.724;2023-06-26T04:31:43;100627.59;;;18.76;100.00
39265;BME280;42646;51.910;7.724;2023-06-26T04:34:14;100631.09;;;18.77;100.00
39265;BME280;42646;51.910;7.724;2023-06-26T04:36:42;100635.47;;;18.78;100.00
39265;BME280;42646;51.910;7.724;2023-06-26T04:39:14;100632.56;;;18.79;100.00
39265;BME280;42646;51.910;7.724;2023-06-26T04:41:44;100636.97;;;18.80;100.00
39265;BME280;42646;51.910;7.724;2023-06-26T04:44:13;100649.00;;;18.84;100.00
39265;BME280;42646;51.910;7.724;2023-06-26T04:46:41;100646.31;;;18.84;100.00
39265;BME280;42646;51.910;7.724;2023-06-26T04:49:09;100652.16;;;18.88;100.00
39265;BME280;42646;51.910;7.724;2023-06-26T04:51:37;100652.63;;;18.91;100.00
39265;BME280;42646;51.910;7.724;2023-06-26T04:54:07;100648.50;;;18.95;100.00
39265;BME280;42646;51.910;7.724;2023-06-26T04:56:35;100648.75;;;19.01;100.00
39265;BME280;42646;51.910;7.724;2023-06-26T04:59:04;100658.13;;;19.05;99.45
39265;BME280;42646;51.910;7.724;2023-06-26T05:01:32;100655.50;;;19.11;99.13
39265;BME280;42646;51.910;7.724;2023-06-26T05:03:59;100656.56;;;19.17;99.27
39265;BME280;42646;51.910;7.724;2023-06-26T05:06:27;100657.47;;;19.24;99.17
39265;BME280;42646;51.910;7.724;2023-06-26T05:08:55;100657.31;;;19.32;98.97
39265;BME280;42646;51.910;7.724;2023-06-26T05:11:25;100659.06;;;19.40;98.70
39265;BME280;42646;51.910;7.724;2023-06-26T05:13:53;100651.63;;;19.48;98.15
39265;BME280;42646;51.910;7.724;2023-06-26T05:16:22;100658.72;;;19.56;97.93
39265;BME280;42646;51.910;7.724;2023-06-26T05:18:49;100659.25;;;19.66;98.13
39265;BME280;42646;51.910;7.724;2023-06-26T05:21:42;100663.28;;;19.77;97.64
39265;BME280;42646;51.910;7.724;2023-06-26T05:24:13;100658.75;;;19.84;97.77
39265;BME280;42646;51.910;7.724;2023-06-26T05:26:43;100660.69;;;19.97;97.34
39265;BME280;42646;51.910;7.724;2023-06-26T05:29:11;100659.06;;;20.02;97.59
39265;BME280;42646;51.910;7.724;2023-06-26T05:31:42;100660.16;;;20.15;97.40
39265;BME280;42646;51.910;7.724;2023-06-26T05:34:13;100654.59;;;20.23;97.08
39265;BME280;42646;51.910;7.724;2023-06-26T05:36:42;100660.25;;;20.35;96.65
39265;BME280;42646;51.910;7.724;2023-06-26T05:39:10;100660.06;;;20.43;96.19
39265;BME280;42646;51.910;7.724;2023-06-26T05:41:38;100658.88;;;20.52;96.05
39265;BME280;42646;51.910;7.724;2023-06-26T05:44:09;100663.88;;;20.62;96.10
39265;BME280;42646;51.910;7.724;2023-06-26T05:46:37;100663.72;;;20.70;95.86
39265;BME280;42646;51.910;7.724;2023-06-26T05:49:09;100673.06;;;20.80;95.38
39265;BME280;42646;51.910;7.724;2023-06-26T05:51:41;100670.19;;;20.89;94.48
39265;BME280;42646;51.910;7.724;2023-06-26T05:54:10;100671.88;;;20.96;94.31
39265;BME280;42646;51.910;7.724;2023-06-26T05:56:43;100678.13;;;21.03;94.17
39265;BME280;42646;51.910;7.724;2023-06-26T05:59:11;100688.53;;;21.13;94.42
39265;BME280;42646;51.910;7.724;2023-06-26T06:01:41;100696.66;;;21.26;93.87
39265;BME280;42646;51.910;7.724;2023-06-26T06:04:10;100702.94;;;21.33;92.75
39265;BME280;42646;51.910;7.724;2023-06-26T06:06:39;100701.91;;;21.41;92.30
39265;BME280;42646;51.910;7.724;2023-06-26T06:09:06;100701.69;;;21.49;91.64
39265;BME280;42646;51.910;7.724;2023-06-26T06:11:35;100703.56;;;21.55;92.03
39265;BME280;42646;51.910;7.724;2023-06-26T06:14:03;100714.59;;;21.67;91.09
39265;BME280;42646;51.910;7.724;2023-06-26T06:16:33;100711.47;;;21.77;89.64
39265;BME280;42646;51.910;7.724;2023-06-26T06:19:01;100703.53;;;21.82;89.88
39265;BME280;42646;51.910;7.724;2023-06-26T06:21:31;100696.44;;;21.87;89.67
39265;BME280;42646;51.910;7.724;2023-06-26T06:23:58;100702.47;;;21.96;88.84
39265;BME280;42646;51.910;7.724;2023-06-26T06:26:29;100702.66;;;22.01;88.48
39265;BME280;42646;51.910;7.724;2023-06-26T06:29:00;100705.59;;;22.06;88.16
39265;BME280;42646;51.910;7.724;2023-06-26T06:31:27;100707.66;;;22.18;86.57
39265;BME280;42646;51.910;7.724;2023-06-26T06:33:56;100724.94;;;22.23;86.89
39265;BME280;42646;51.910;7.724;2023-06-26T06:36:24;100727.19;;;22.33;86.14
39265;BME280;42646;51.910;7.724;2023-06-26T06:38:53;100732.59;;;22.39;85.36
39265;BME280;42646;51.910;7.724;2023-06-26T06:41:24;100735.94;;;22.42;84.42
39265;BME280;42646;51.910;7.724;2023-06-26T06:43:52;100727.97;;;22.47;84.66
39265;BME280;42646;51.910;7.724;2023-06-26T06:46:20;100730.69;;;22.53;85.00
39265;BME280;42646;51.910;7.724;2023-06-26T06:48:49;100730.84;;;22.58;84.42
39265;BME280;42646;51.910;7.724;2023-06-26T06:51:17;100739.22;;;22.57;83.63
39265;BME280;42646;51.910;7.724;2023-06-26T06:53:46;100732.09;;;22.62;82.61
39265;BME280;42646;51.910;7.724;2023-06-26T06:56:15;100737.97;;;22.59;82.40
39265;BME280;42646;51.910;7.724;2023-06-26T06:58:43;100735.06;;;22.54;82.36
39265;BME280;42646;51.910;7.724;2023-06-26T07:01:14;100727.13;;;22.53;82.79
39265;BME280;42646;51.910;7.724;2023-06-26T07:03:42;100732.34;;;22.54;83.32
39265;BME280;42646;51.910;7.724;2023-06-26T07:06:10;100735.88;;;22.55;83.75
39265;BME280;42646;51.910;7.724;2023-06-26T07:08:38;100741.88;;;22.63;83.04
39265;BME280;42646;51.910;7.724;2023-06-26T07:11:05;100759.41;;;22.67;82.80
39265;BME280;42646;51.910;7.724;2023-06-26T07:13:35;100772.34;;;22.65;82.75
39265;BME280;42646;51.910;7.724;2023-06-26T07:16:03;100785.91;;;22.65;81.96
39265;BME280;42646;51.910;7.724;2023-06-26T07:18:31;100797.19;;;22.62;82.30
39265;BME280;42646;51.910;7.724;2023-06-26T07:20:59;100795.50;;;22.61;82.33
39265;BME280;42646;51.910;7.724;2023-06-26T07:23:26;100791.97;;;22.61;80.91
39265;BME280;42646;51.910;7.724;2023-06-26T07:25:58;100791.16;;;22.54;81.31
39265;BME280;42646;51.910;7.724;2023-06-26T07:28:26;100796.19;;;22.50;81.79
39265;BME280;42646;51.910;7.724;2023-06-26T07:30:56;100799.72;;;22.51;83.02
39265;BME280;42646;51.910;7.724;2023-06-26T07:33:26;100806.97;;;22.63;83.37
39265;BME280;42646;51.910;7.724;2023-06-26T07:35:54;100815.31;;;22.69;83.77
39265;BME280;42646;51.910;7.724;2023-06-26T07:38:24;100808.41;;;22.73;83.33
39265;BME280;42646;51.910;7.724;2023-06-26T07:40:51;100805.22;;;22.82;82.32
39265;BME280;42646;51.910;7.724;2023-06-26T07:43:19;100817.78;;;22.90;83.33
39265;BME280;42646;51.910;7.724;2023-06-26T07:45:49;100819.59;;;23.03;83.26
39265;BME280;42646;51.910;7.724;2023-06-26T07:48:19;100817.25;;;23.06;83.07
39265;BME280;42646;51.910;7.724;2023-06-26T07:50:46;100824.34;;;23.14;81.25
39265;BME280;42646;51.910;7.724;2023-06-26T07:53:18;100816.38;;;23.12;81.56
39265;BME280;42646;51.910;7.724;2023-06-26T07:55:45;100811.59;;;23.14;81.74
39265;BME280;42646;51.910;7.724;2023-06-26T07:58:14;100809.31;;;23.11;81.29
39265;BME280;42646;51.910;7.724;2023-06-26T08:00:42;100809.31;;;23.11;81.25
39265;BME280;42646;51.910;7.724;2023-06-26T08:03:10;100800.91;;;23.19;80.73
39265;BME280;42646;51.910;7.724;2023-06-26T08:05:56;100796.69;;;23.24;80.47
39265;BME280;42646;51.910;7.724;2023-06-26T08:08:24;100799.38;;;23.30;81.17
39265;BME280;42646;51.910;7.724;2023-06-26T08:10:52;100803.50;;;23.39;80.73
39265;BME280;42646;51.910;7.724;2023-06-26T08:13:20;100799.31;;;23.43;79.17
39265;BME280;42646;51.910;7.724;2023-06-26T08:15:49;100805.94;;;23.48;79.90
39265;BME280;42646;51.910;7.724;2023-06-26T08:18:17;100806.53;;;23.56;80.52
39265;BME280;42646;51.910;7.724;2023-06-26T08:20:48;100811.88;;;23.69;79.92
39265;BME280;42646;51.910;7.724;2023-06-26T08:23:17;100810.94;;;23.82;78.03
39265;BME280;42646;51.910;7.724;2023-06-26T08:25:45;100820.91;;;23.88;77.83
39265;BME280;42646;51.910;7.724;2023-06-26T08:28:41;100828.81;;;23.96;76.28
39265;BME280;42646;51.910;7.724;2023-06-26T08:31:09;100836.97;;;23.96;76.70
39265;BME280;42646;51.910;7.724;2023-06-26T08:33:37;100836.50;;;23.99;76.78
39265;BME280;42646;51.910;7.724;2023-06-26T08:36:05;100837.75;;;24.04;76.45
39265;BME280;42646;51.910;7.724;2023-06-26T08:38:34;100838.34;;;24.06;76.54
39265;BME280;42646;51.910;7.724;2023-06-26T08:41:01;100844.41;;;24.08;76.14
39265;BME280;42646;51.910;7.724;2023-06-26T08:43:35;100848.16;;;24.07;75.69
39265;BME280;42646;51.910;7.724;2023-06-26T08:46:04;100852.94;;;24.11;74.77
39265;BME280;42646;51.910;7.724;2023-06-26T08:48:33;100843.53;;;24.07;76.35
39265;BME280;42646;51.910;7.724;2023-06-26T08:51:03;100857.25;;;24.19;77.18
39265;BME280;42646;51.910;7.724;2023-06-26T08:53:43;100853.59;;;24.32;76.01
39265;BME280;42646;51.910;7.724;2023-06-26T08:56:17;100858.75;;;24.40;74.77
39265;BME280;42646;51.910;7.724;2023-06-26T08:58:47;100861.41;;;24.46;73.64
39265;BME280;42646;51.910;7.724;2023-06-26T09:01:16;100863.13;;;24.41;73.95
39265;BME280;42646;51.910;7.724;2023-06-26T09:03:44;100859.97;;;24.44;74.35
39265;BME280;42646;51.910;7.724;2023-06-26T09:06:13;100860.16;;;24.49;75.02
39265;BME280;42646;51.910;7.724;2023-06-26T09:08:42;100869.00;;;24.63;75.25
39265;BME280;42646;51.910;7.724;2023-06-26T09:11:12;100861.56;;;24.70;72.84
39265;BME280;42646;51.910;7.724;2023-06-26T09:13:47;100862.56;;;24.75;74.23
39265;BME280;42646;51.910;7.724;2023-06-26T09:16:40;100863.78;;;24.80;73.25
39265;BME280;42646;51.910;7.724;2023-06-26T09:19:10;100876.00;;;24.89;68.52
39265;BME280;42646;51.910;7.724;2023-06-26T09:21:40;100866.13;;;24.76;68.53
39265;BME280;42646;51.910;7.724;2023-06-26T09:24:10;100880.47;;;24.65;69.43
39265;BME280;42646;51.910;7.724;2023-06-26T09:26:39;100861.88;;;24.62;69.18
39265;BME280;42646;51.910;7.724;2023-06-26T09:29:08;100874.03;;;24.59;69.28
39265;BME280;42646;51.910;7.724;2023-06-26T09:31:38;100871.72;;;24.63;70.06
39265;BME280;42646;51.910;7.724;2023-06-26T09:34:08;100873.88;;;24.72;64.85
39265;BME280;42646;51.910;7.724;2023-06-26T09:36:37;100877.22;;;24.56;66.67
39265;BME280;42646;51.910;7.724;2023-06-26T09:39:08;100875.41;;;24.50;67.39
39265;BME280;42646;51.910;7.724;2023-06-26T09:42:08;100888.69;;;24.40;67.67
39265;BME280;42646;51.910;7.724;2023-06-26T09:44:43;100894.38;;;24.32;69.09
39265;BME280;42646;51.910;7.724;2023-06-26T09:47:12;100883.06;;;24.35;69.48
39265;BME280;42646;51.910;7.724;2023-06-26T09:49:42;100881.75;;;24.44;71.99
39265;BME280;42646;51.910;7.724;2023-06-26T09:52:14;100888.19;;;24.68;68.99
39265;BME280;42646;51.910;7.724;2023-06-26T09:54:43;100886.47;;;24.73;70.18
39265;BME280;42646;51.910;7.724;2023-06-26T09:57:40;100879.56;;;24.89;68.67
39265;BME280;42646;51.910;7.724;2023-06-26T10:00:13;100885.91;;;25.01;66.21
39265;BME280;42646;51.910;7.724;2023-06-26T10:02:41;100874.53;;;25.11;62.06
39265;BME280;42646;51.910;7.724;2023-06-26T10:05:10;100887.16;;;25.06;62.00
39265;BME280;42646;51.910;7.724;2023-06-26T10:07:39;100896.38;;;24.86;63.78
39265;BME280;42646;51.910;7.724;2023-06-26T10:10:08;100890.38;;;24.96;62.88
39265;BME280;42646;51.910;7.724;2023-06-26T10:12:36;100907.84;;;24.88;61.18
39265;BME280;42646;51.910;7.724;2023-06-26T10:15:06;100909.06;;;24.92;58.34
39265;BME280;42646;51.910;7.724;2023-06-26T10:17:42;100903.81;;;24.72;60.14
39265;BME280;42646;51.910;7.724;2023-06-26T10:20:13;100907.00;;;24.69;61.79
39265;BME280;42646;51.910;7.724;2023-06-26T10:23:07;100902.31;;;24.76;62.30
39265;BME280;42646;51.910;7.724;2023-06-26T10:25:37;100907.25;;;24.86;63.21
39265;BME280;42646;51.910;7.724;2023-06-26T10:28:09;100902.25;;;25.01;60.28
39265;BME280;42646;51.910;7.724;2023-06-26T10:30:39;100915.41;;;25.04;58.47
39265;BME280;42646;51.910;7.724;2023-06-26T10:33:08;100914.97;;;25.08;56.25
39265;BME280;42646;51.910;7.724;2023-06-26T10:35:42;100920.66;;;25.06;54.83
39265;BME280;42646;51.910;7.724;2023-06-26T10:38:10;100914.13;;;24.89;57.99
39265;BME280;42646;51.910;7.724;2023-06-26T10:41:10;100924.84;;;24.84;57.52
39265;BME280;42646;51.910;7.724;2023-06-26T10:43:42;100918.13;;;24.86;55.44
39265;BME280;42646;51.910;7.724;2023-06-26T10:46:14;100906.19;;;24.87;56.06
39265;BME280;42646;51.910;7.724;2023-06-26T10:48:56;100916.09;;;25.00;52.95
39265;BME280;42646;51.910;7.724;2023-06-26T10:51:25;100925.25;;;24.87;54.89
39265;BME280;42646;51.910;7.724;2023-06-26T10:53:55;100922.50;;;24.87;55.70
39265;BME280;42646;51.910;7.724;2023-06-26T10:56:40;100924.25;;;25.00;56.88
39265;BME280;42646;51.910;7.724;2023-06-26T10:59:14;100933.91;;;25.21;55.91
39265;BME280;42646;51.910;7.724;2023-06-26T11:02:10;100936.97;;;25.24;53.11
39265;BME280;42646;51.910;7.724;2023-06-26T11:04:40;100925.66;;;25.09;52.61
39265;BME280;42646;51.910;7.724;2023-06-26T11:07:15;100935.53;;;25.03;54.63
39265;BME280;42646;51.910;7.724;2023-06-26T11:09:55;100928.81;;;25.06;54.57
39265;BME280;42646;51.910;7.724;2023-06-26T11:12:41;100923.81;;;25.03;55.30
39265;BME280;42646;51.910;7.724;2023-06-26T11:15:11;100926.09;;;25.06;54.18
39265;BME280;42646;51.910;7.724;2023-06-26T11:17:42;100936.69;;;25.14;55.21
39265;BME280;42646;51.910;7.724;2023-06-26T11:20:12;100932.06;;;25.33;55.39
39265;BME280;42646;51.910;7.724;2023-06-26T11:22:42;100927.59;;;25.39;55.95
39265;BME280;42646;51.910;7.724;2023-06-26T11:25:10;100936.47;;;25.64;53.46
39265;BME280;42646;51.910;7.724;2023-06-26T11:27:39;100944.06;;;25.62;55.36
39265;BME280;42646;51.910;7.724;2023-06-26T11:30:08;100947.97;;;25.66;53.19
39265;BME280;42646;51.910;7.724;2023-06-26T11:32:36;100944.66;;;25.64;51.64
39265;BME280;42646;51.910;7.724;2023-06-26T11:35:07;100948.53;;;25.56;52.86
39265;BME280;42646;51.910;7.724;2023-06-26T11:37:36;100952.56;;;25.66;52.85
39265;BME280;42646;51.910;7.724;2023-06-26T11:40:17;100937.81;;;25.73;49.18
39265;BME280;42646;51.910;7.724;2023-06-26T11:42:45;100937.97;;;25.78;50.86
39265;BME280;42646;51.910;7.724;2023-06-26T11:45:13;100949.53;;;25.92;50.26
39265;BME280;42646;51.910;7.724;2023-06-26T11:47:41;100967.28;;;25.95;48.34
39265;BME280;42646;51.910;7.724;2023-06-26T11:50:16;100960.16;;;25.82;49.18
39265;BME280;42646;51.910;7.724;2023-06-26T11:52:45;100971.38;;;25.74;50.19
39265;BME280;42646;51.910;7.724;2023-06-26T11:55:26;100986.19;;;25.60;49.69
39265;BME280;42646;51.910;7.724;2023-06-26T11:57:55;100987.94;;;25.54;48.96
39265;BME280;42646;51.910;7.724;2023-06-26T12:00:23;100977.28;;;25.52;49.25
39265;BME280;42646;51.910;7.724;2023-06-26T12:02:51;100980.41;;;25.56;49.77
39265;BME280;42646;51.910;7.724;2023-06-26T12:05:24;100979.38;;;25.69;49.52
39265;BME280;42646;51.910;7.724;2023-06-26T12:07:52;100987.09;;;25.72;50.36
39265;BME280;42646;51.910;7.724;2023-06-26T12:10:21;100986.09;;;25.84;50.15
39265;BME280;42646;51.910;7.724;2023-06-26T12:12:49;100979.56;;;26.04;48.12
39265;BME280;42646;51.910;7.724;2023-06-26T12:15:17;100969.34;;;25.99;49.42
39265;BME280;42646;51.910;7.724;2023-06-26T12:17:46;100983.91;;;25.93;49.93
39265;BME280;42646;51.910;7.724;2023-06-26T12:20:17;100981.66;;;26.02;48.12
39265;BME280;42646;51.910;7.724;2023-06-26T12:22:47;100986.88;;;25.92;49.07
39265;BME280;42646;51.910;7.724;2023-06-26T12:25:15;100981.56;;;25.78;50.69
39265;BME280;42646;51.910;7.724;2023-06-26T12:27:45;100980.16;;;25.76;49.56
39265;BME280;42646;51.910;7.724;2023-06-26T12:30:13;100987.66;;;25.62;49.44
39265;BME280;42646;51.910;7.724;2023-06-26T12:32:44;100989.91;;;25.65;48.79
39265;BME280;42646;51.910;7.724;2023-06-26T12:35:13;100982.81;;;25.46;49.77
39265;BME280;42646;51.910;7.724;2023-06-26T12:37:43;100986.22;;;25.41;49.08
39265;BME280;42646;51.910;7.724;2023-06-26T12:40:18;100993.81;;;25.39;49.51
39265;BME280;42646;51.910;7.724;2023-06-26T12:42:48;101004.53;;;25.52;46.57
39265;BME280;42646;51.910;7.724;2023-06-26T12:45:16;100995.75;;;25.50;48.19
39265;BME280;42646;51.910;7.724;2023-06-26T12:47:47;100992.47;;;25.60;46.61
39265;BME280;42646;51.910;7.724;2023-06-26T12:50:15;101005.19;;;25.66;47.07
39265;BME280;42646;51.910;7.724;2023-06-26T12:52:43;101010.53;;;25.73;47.47
39265;BME280;42646;51.910;7.724;2023-06-26T12:55:12;101008.06;;;25.71;46.36
39265;BME280;42646;51.910;7.724;2023-06-26T12:57:43;100996.75;;;25.74;47.16
39265;BME280;42646;51.910;7.724;2023-06-26T13:00:12;101006.06;;;25.97;46.21
39265;BME280;42646;51.910;7.724;2023-06-26T13:02:41;101011.78;;;26.07;44.67
39265;BME280;42646;51.910;7.724;2023-06-26T13:05:09;101005.03;;;25.98;42.58
39265;BME280;42646;51.910;7.724;2023-06-26T13:07:37;101005.31;;;25.90;42.88